Hauptseite
Satellitenwetter 10-Tage PrognosenKlimaSeewetter Wirbelstürme Blitz FlughäfenFAQ Newsletter Über uns
Wetter : Europa Afrika Nordamerika Südamerika Asien Australien-Ozeanien Andere
Sprachen Kontakt

Stuttgart, Deutschland

Flughafen Stuttgart

Breite: 48-41N, Länge: 009-13E, Höhe: 396 m


METAR: EDDS 051350Z 30013KT CAVOK 16/07 Q1017 NOSIG
TAF: EDDS 051100Z 0512/0612 28008KT 9999 SCT035 PROB30 TEMPO 0522/0603 30015G25KT SHRA BKN020TCU

Zeit: 16:14 (14:14 UTC)

Beobachtung

Neuester Wetterbericht von vor 24 Minuten, um 13:50 UTC
Wind 13 kt aus West/Nordwest
Temperatur 16°C
Luftfeuchtigkeit 55%
Luftdruck 1017 hPa
Sichtweite 10 km oder mehr
keine Wolken unter 1500 m und keine Kumulonimbus oder Gewitterwolken

Maßeinheiten ändern

Prognose

Neuester Wetterbericht von vor 3 Stunden und 14 Minuten, um 11:00 UTC
Gültige Prognose vom 05 um 12 UTC bis 06 um 12 UTC
Wind 8 kt aus West
Sichtweite 10 km oder mehr
Aufgelockert bewölkt in der Höhe von 3500 ft
Wahrscheinlichkeit 30% :
Zeitweise
vom 05 um 22 UTC bis 06 um 03 UTC
Wind 15 kt aus West/Nordwest, Böen bis zu 25 kt
Durchbrochene Bewölkung in der Höhe von 2000 ft, Towering cumulus.
Regenschauer
Die Angaben auf diesen Webseiten unterliegen einer Erklärung über den Haftungsausschluss
Wetter : Europa Afrika Nordamerika Südamerika Asien Australien-Ozeanien Andere
Satellitenwetter 10-Tage PrognosenKlimaSeewetter Wirbelstürme Blitz FlughäfenFAQ Sprachen Kontakt Newsletter Über uns